createdAt,value
2019-02-25T00:00:24.213Z,12.73
2019-02-25T00:03:08.448Z,13.10
2019-02-25T00:05:48.761Z,13.22
2019-02-25T00:08:33.564Z,13.38
2019-02-25T00:11:14.576Z,12.40
2019-02-25T00:13:53.984Z,13.03
2019-02-25T00:16:36.344Z,13.65
2019-02-25T00:19:15.686Z,14.90
2019-02-25T00:21:54.844Z,12.63
2019-02-25T00:24:43.334Z,14.03
2019-02-25T00:27:22.532Z,14.10
2019-02-25T00:30:01.665Z,15.40
2019-02-25T00:32:41.762Z,15.60
2019-02-25T00:35:21.047Z,15.38
2019-02-25T00:38:19.836Z,14.73
2019-02-25T00:40:58.714Z,15.78
2019-02-25T00:43:40.072Z,14.15
2019-02-25T00:46:20.044Z,11.95
2019-02-25T00:49:02.077Z,11.75
2019-02-25T00:51:42.171Z,13.25
2019-02-25T00:54:21.369Z,13.70
2019-02-25T00:57:00.657Z,12.98
2019-02-25T00:59:40.082Z,12.73
2019-02-25T01:02:20.608Z,13.22
2019-02-25T01:05:00.011Z,12.82
2019-02-25T01:07:40.068Z,12.55
2019-02-25T01:10:20.522Z,11.20
2019-02-25T01:12:59.647Z,12.05
2019-02-25T01:15:39.299Z,12.58
2019-02-25T01:18:18.628Z,11.68
2019-02-25T01:20:58.212Z,12.30
2019-02-25T01:23:37.278Z,11.33
2019-02-25T01:26:19.496Z,11.28
2019-02-25T01:28:58.454Z,10.95
2019-02-25T01:31:37.832Z,10.85
2019-02-25T01:34:17.782Z,9.95
2019-02-25T01:37:00.362Z,9.98
2019-02-25T01:39:42.871Z,9.80
2019-02-25T01:42:23.720Z,10.90
2019-02-25T01:45:02.911Z,10.32
2019-02-25T01:47:43.378Z,10.70
2019-02-25T01:50:22.682Z,11.40
2019-02-25T01:53:02.992Z,11.00
2019-02-25T01:55:43.267Z,11.03
2019-02-25T01:58:23.708Z,10.38
2019-02-25T02:01:06.401Z,10.25
2019-02-25T02:03:45.919Z,11.22
2019-02-25T02:06:27.447Z,10.82
2019-02-25T02:09:08.465Z,10.35
2019-02-25T02:11:53.111Z,10.00
2019-02-25T02:14:33.357Z,11.65
2019-02-25T02:17:13.704Z,9.98
2019-02-25T02:19:53.939Z,11.25
2019-02-25T02:22:33.210Z,10.55
2019-02-25T02:25:14.926Z,11.15
2019-02-25T02:27:53.919Z,10.72
2019-02-25T02:30:32.720Z,10.65
2019-02-25T02:33:12.463Z,10.65
2019-02-25T02:35:53.485Z,10.55
2019-02-25T02:38:32.815Z,10.25
2019-02-25T02:41:13.265Z,10.28
2019-02-25T02:43:52.612Z,9.75
2019-02-25T02:47:14.419Z,10.32
2019-02-25T02:49:53.739Z,11.15
2019-02-25T02:52:32.639Z,11.15
2019-02-25T02:55:30.650Z,11.05
2019-02-25T02:58:11.763Z,11.65
2019-02-25T03:00:51.472Z,11.12
2019-02-25T03:03:31.066Z,11.60
2019-02-25T03:06:10.522Z,10.15
2019-02-25T03:08:49.824Z,10.05
2019-02-25T03:11:29.146Z,9.53
2019-02-25T03:14:11.571Z,10.05
2019-02-25T03:16:52.016Z,10.00
2019-02-25T03:19:31.612Z,10.10
2019-02-25T03:22:11.178Z,9.75
2019-02-25T03:24:51.702Z,9.48
2019-02-25T03:27:31.219Z,9.28
2019-02-25T03:30:13.239Z,9.70
2019-02-25T03:32:52.840Z,10.58
2019-02-25T03:35:32.319Z,10.35
2019-02-25T03:38:13.131Z,10.63
2019-02-25T03:40:53.049Z,10.23
2019-02-25T03:43:32.322Z,11.33
2019-02-25T03:46:11.627Z,10.95
2019-02-25T03:48:50.861Z,11.50
2019-02-25T03:51:38.957Z,13.18
2019-02-25T03:54:18.344Z,11.55
2019-02-25T03:57:00.704Z,12.03
2019-02-25T03:59:41.082Z,14.03
2019-02-25T04:02:21.172Z,11.30
2019-02-25T04:05:01.322Z,10.35
2019-02-25T04:07:49.538Z,10.45
2019-02-25T04:10:28.737Z,10.93
2019-02-25T04:13:09.197Z,10.58
2019-02-25T04:15:48.469Z,10.58
2019-02-25T04:18:28.943Z,10.80
2019-02-25T04:21:09.154Z,10.55
2019-02-25T04:23:48.320Z,9.88
2019-02-25T04:26:27.452Z,10.28
2019-02-25T04:29:07.335Z,10.15
2019-02-25T04:31:51.151Z,11.18
2019-02-25T04:34:31.189Z,10.60
2019-02-25T04:37:10.585Z,10.20
2019-02-25T04:39:51.886Z,10.80
2019-02-25T04:42:31.105Z,10.50
2019-02-25T04:45:12.495Z,10.55
2019-02-25T04:47:54.626Z,11.15
2019-02-25T04:50:34.762Z,12.10
2019-02-25T04:53:15.061Z,11.75
2019-02-25T04:55:56.009Z,11.93
2019-02-25T04:58:36.821Z,11.73
2019-02-25T05:01:16.144Z,11.97
2019-02-25T05:03:56.562Z,12.65
2019-02-25T05:06:35.998Z,11.97
2019-02-25T05:09:16.209Z,12.28
2019-02-25T05:11:55.311Z,12.37
2019-02-25T05:14:34.422Z,11.15
2019-02-25T05:17:20.365Z,11.05
2019-02-25T05:20:03.443Z,12.37
2019-02-25T05:22:43.869Z,11.43
2019-02-25T05:25:22.813Z,10.93
2019-02-25T05:28:02.963Z,11.57
2019-02-25T05:30:42.390Z,12.20
2019-02-25T05:33:21.805Z,13.25
2019-02-25T05:36:00.946Z,12.28
2019-02-25T05:38:45.284Z,11.10
2019-02-25T05:41:25.358Z,11.80
2019-02-25T05:44:04.636Z,11.93
2019-02-25T05:46:43.615Z,12.10
2019-02-25T05:49:23.029Z,11.80
2019-02-25T05:52:02.045Z,12.78
2019-02-25T05:54:41.641Z,14.13
2019-02-25T05:57:20.537Z,13.43
2019-02-25T06:00:03.699Z,12.90
2019-02-25T06:02:44.794Z,13.78
2019-02-25T06:05:27.002Z,12.73
2019-02-25T06:08:06.897Z,13.18
2019-02-25T06:10:48.659Z,13.48
2019-02-25T06:13:28.046Z,12.80
2019-02-25T06:16:10.974Z,12.33
2019-02-25T06:18:51.133Z,13.50
2019-02-25T06:21:31.030Z,12.00
2019-02-25T06:24:10.368Z,12.13
2019-02-25T06:26:49.983Z,11.78
2019-02-25T06:29:29.345Z,12.03
2019-02-25T06:32:10.108Z,12.43
2019-02-25T06:34:49.314Z,11.33
2019-02-25T06:37:29.093Z,12.03
2019-02-25T06:40:10.343Z,11.93
2019-02-25T06:42:53.250Z,11.55
2019-02-25T06:48:10.807Z,10.78
2019-02-25T06:50:51.160Z,10.53
2019-02-25T06:53:30.546Z,11.55
2019-02-25T06:56:11.567Z,10.93
2019-02-25T06:58:50.414Z,10.43
2019-02-25T07:01:29.546Z,10.23
2019-02-25T07:04:30.996Z,11.28
2019-02-25T07:07:21.790Z,10.55
2019-02-25T07:10:18.372Z,11.28
2019-02-25T07:13:15.847Z,10.75
2019-02-25T07:16:19.407Z,10.28
2019-02-25T07:19:27.211Z,10.48
2019-02-25T07:22:21.583Z,10.30
2019-02-25T07:25:22.539Z,11.68
2019-02-25T07:28:21.058Z,10.72
2019-02-25T07:31:18.283Z,11.28
2019-02-25T07:34:05.142Z,10.88
2019-02-25T07:37:10.424Z,11.25
2019-02-25T07:40:22.407Z,12.35
2019-02-25T07:43:20.801Z,12.07
2019-02-25T07:46:19.570Z,11.88
2019-02-25T07:49:26.647Z,11.33
2019-02-25T07:52:24.257Z,11.43
2019-02-25T07:55:21.298Z,10.93
2019-02-25T07:58:13.081Z,11.15
2019-02-25T08:01:00.277Z,11.70
2019-02-25T08:03:47.601Z,11.00
2019-02-25T08:06:48.437Z,10.85
2019-02-25T08:09:39.662Z,12.13
2019-02-25T08:12:39.878Z,12.13
2019-02-25T08:15:37.338Z,11.35
2019-02-25T08:18:52.614Z,12.05
2019-02-25T08:21:48.745Z,11.75
2019-02-25T08:24:36.758Z,12.13
2019-02-25T08:27:34.601Z,12.33
2019-02-25T08:30:21.487Z,11.78
2019-02-25T08:33:25.711Z,12.00
2019-02-25T08:37:09.022Z,11.63
2019-02-25T08:40:20.374Z,12.53
2019-02-25T08:43:19.102Z,12.05
2019-02-25T08:46:15.360Z,10.95
2019-02-25T08:49:15.795Z,12.53
2019-02-25T08:51:55.034Z,12.78
2019-02-25T08:54:34.528Z,12.35
2019-02-25T08:57:13.787Z,12.60
2019-02-25T08:59:53.107Z,12.07
2019-02-25T09:02:34.571Z,11.60
2019-02-25T09:05:17.176Z,12.80
2019-02-25T09:08:00.105Z,12.05
2019-02-25T09:10:40.347Z,11.83
2019-02-25T09:13:19.753Z,11.95
2019-02-25T09:15:58.830Z,12.55
2019-02-25T09:18:38.332Z,12.00
2019-02-25T09:21:20.183Z,11.78
2019-02-25T09:23:59.666Z,13.03
2019-02-25T09:26:40.093Z,12.50
2019-02-25T09:29:19.468Z,11.75
2019-02-25T09:31:58.748Z,11.68
2019-02-25T09:34:38.893Z,11.80
2019-02-25T09:37:18.254Z,12.03
2019-02-25T09:39:58.496Z,12.60
2019-02-25T09:42:38.704Z,12.40
2019-02-25T09:45:58.438Z,12.13
2019-02-25T09:48:37.854Z,12.53
2019-02-25T09:51:17.071Z,12.53
2019-02-25T09:54:01.651Z,12.88
2019-02-25T09:56:42.495Z,12.50
2019-02-25T09:59:21.720Z,11.97
2019-02-25T10:02:00.918Z,12.82
2019-02-25T10:04:41.737Z,14.03
2019-02-25T10:07:21.143Z,13.15
2019-02-25T10:10:01.797Z,12.90
2019-02-25T10:12:43.620Z,12.45
2019-02-25T10:15:24.012Z,13.05
2019-02-25T10:18:03.406Z,13.22
2019-02-25T10:20:42.483Z,13.72
2019-02-25T10:23:21.899Z,13.38
2019-02-25T10:26:02.349Z,13.60
2019-02-25T10:28:45.094Z,13.70
2019-02-25T10:31:25.317Z,14.78
2019-02-25T10:34:10.336Z,13.38
2019-02-25T10:36:52.373Z,13.62
2019-02-25T10:39:31.670Z,13.58
2019-02-25T10:42:10.781Z,14.40
2019-02-25T10:44:52.920Z,14.58
2019-02-25T10:47:32.679Z,15.25
2019-02-25T10:50:28.785Z,14.68
2019-02-25T10:53:03.413Z,13.93
2019-02-25T10:55:46.710Z,14.83
2019-02-25T10:58:26.986Z,15.40
2019-02-25T11:01:08.469Z,14.70
2019-02-25T11:03:52.053Z,14.87
2019-02-25T11:06:35.127Z,15.40
2019-02-25T11:09:30.917Z,17.23
2019-02-25T11:12:10.246Z,16.00
2019-02-25T11:14:49.330Z,16.12
2019-02-25T11:17:29.092Z,14.95
2019-02-25T11:20:09.251Z,16.55
2019-02-25T11:22:51.213Z,16.73
2019-02-25T11:25:30.769Z,16.10
2019-02-25T11:28:23.574Z,16.10
2019-02-25T11:30:55.852Z,15.95
2019-02-25T11:33:34.816Z,16.02
2019-02-25T11:36:17.668Z,15.93
2019-02-25T11:38:57.973Z,16.45
2019-02-25T11:41:39.347Z,17.27
2019-02-25T11:44:19.045Z,16.00
2019-02-25T11:46:59.037Z,16.67
2019-02-25T11:49:38.894Z,16.20
2019-02-25T11:52:18.140Z,16.52
2019-02-25T11:54:57.490Z,17.17
2019-02-25T11:57:38.600Z,16.82
2019-02-25T12:00:25.314Z,17.20
2019-02-25T12:03:04.497Z,14.78
2019-02-25T12:05:44.861Z,16.55
2019-02-25T12:08:25.041Z,16.00
2019-02-25T12:11:04.144Z,15.48
2019-02-25T12:13:46.766Z,15.23
2019-02-25T12:16:28.316Z,16.10
2019-02-25T12:19:17.726Z,15.75
2019-02-25T12:21:52.480Z,18.37
2019-02-25T12:24:31.419Z,16.62
2019-02-25T12:27:11.841Z,17.30
2019-02-25T12:29:52.953Z,17.60
2019-02-25T12:32:33.276Z,17.07
2019-02-25T12:35:17.260Z,16.67
2019-02-25T12:37:58.655Z,16.95
2019-02-25T12:40:38.095Z,17.07
2019-02-25T12:43:18.883Z,16.15
2019-02-25T12:45:58.169Z,15.90
2019-02-25T12:48:39.154Z,16.27
2019-02-25T12:51:22.791Z,16.93
2019-02-25T12:54:06.336Z,16.20
2019-02-25T12:56:45.732Z,16.75
2019-02-25T12:59:24.625Z,17.40
2019-02-25T13:02:04.024Z,17.27
2019-02-25T13:04:46.988Z,16.82
2019-02-25T13:07:27.270Z,17.07
2019-02-25T13:10:06.538Z,16.52
2019-02-25T13:12:46.683Z,17.52
2019-02-25T13:15:27.017Z,17.12
2019-02-25T13:18:07.675Z,16.60
2019-02-25T13:20:48.801Z,17.07
2019-02-25T13:23:29.362Z,17.23
2019-02-25T13:26:08.801Z,16.93
2019-02-25T13:28:48.353Z,17.45
2019-02-25T13:31:28.696Z,16.73
2019-02-25T13:34:08.178Z,17.15
2019-02-25T13:37:53.620Z,16.40
2019-02-25T13:40:34.989Z,17.80
2019-02-25T13:43:15.823Z,18.37
2019-02-25T13:45:57.173Z,18.80
2019-02-25T13:48:39.120Z,18.48
2019-02-25T13:51:19.519Z,18.70
2019-02-25T13:53:58.937Z,19.17
2019-02-25T13:56:43.709Z,19.90
2019-02-25T13:59:25.293Z,18.95
2019-02-25T14:02:04.712Z,19.00
2019-02-25T14:04:45.852Z,19.12
2019-02-25T14:07:26.561Z,19.17
2019-02-25T14:10:07.849Z,19.32
2019-02-25T14:15:24.959Z,18.92
2019-02-25T14:18:05.316Z,20.82
2019-02-25T14:20:45.034Z,19.95
2019-02-25T14:23:25.490Z,20.23
2019-02-25T14:26:04.884Z,19.50
2019-02-25T14:28:46.682Z,20.12
2019-02-25T14:31:27.291Z,20.27
2019-02-25T14:34:07.678Z,19.53
2019-02-25T14:36:48.395Z,20.17
2019-02-25T14:39:33.400Z,20.25
2019-02-25T14:42:13.457Z,20.23
2019-02-25T14:44:54.419Z,19.05
2019-02-25T14:47:36.938Z,19.12
2019-02-25T14:50:22.590Z,19.00
2019-02-25T14:53:11.564Z,18.82
2019-02-25T14:55:53.143Z,18.20
2019-02-25T14:58:37.870Z,16.80
2019-02-25T15:01:27.977Z,17.50
2019-02-25T15:04:27.950Z,18.77
2019-02-25T15:07:08.658Z,19.07
2019-02-25T15:09:49.073Z,18.37
2019-02-25T15:12:29.506Z,18.27
2019-02-25T15:15:09.421Z,18.55
2019-02-25T15:17:52.711Z,18.77
2019-02-25T15:20:32.261Z,16.57
2019-02-25T15:23:14.565Z,16.02
2019-02-25T15:25:54.871Z,16.27
2019-02-25T15:28:34.062Z,15.38
2019-02-25T15:31:14.127Z,15.70
2019-02-25T15:33:59.015Z,15.13
2019-02-25T15:36:47.977Z,14.40
2019-02-25T15:39:28.475Z,14.40
2019-02-25T15:42:09.181Z,14.60
2019-02-25T15:44:49.249Z,14.70
2019-02-25T15:47:31.451Z,15.43
2019-02-25T15:50:12.755Z,15.63
2019-02-25T15:52:52.924Z,14.55
2019-02-25T15:55:38.145Z,14.35
2019-02-25T15:58:18.127Z,13.83
2019-02-25T16:00:59.351Z,16.15
2019-02-25T16:03:40.860Z,15.75
2019-02-25T16:06:25.019Z,15.40
2019-02-25T16:09:05.336Z,15.28
2019-02-25T16:11:47.364Z,16.60
2019-02-25T16:14:27.657Z,17.42
2019-02-25T16:17:09.423Z,16.87
2019-02-25T16:19:53.132Z,17.00
2019-02-25T16:22:31.862Z,15.98
2019-02-25T16:25:13.016Z,16.60
2019-02-25T16:27:54.264Z,16.65
2019-02-25T16:30:35.042Z,16.82
2019-02-25T16:33:17.714Z,15.28
2019-02-25T16:35:58.654Z,16.80
2019-02-25T16:38:44.166Z,15.95
2019-02-25T16:41:27.485Z,16.02
2019-02-25T16:44:07.301Z,15.95
2019-02-25T16:46:54.061Z,15.72
2019-02-25T16:49:33.976Z,16.48
2019-02-25T16:52:15.887Z,15.75
2019-02-25T16:54:57.726Z,16.75
2019-02-25T16:57:41.287Z,15.98
2019-02-25T17:00:25.294Z,15.32
2019-02-25T17:03:06.654Z,15.18
2019-02-25T17:05:49.883Z,15.23
2019-02-25T17:08:30.354Z,16.32
2019-02-25T17:11:10.854Z,15.28
2019-02-25T17:13:52.894Z,15.10
2019-02-25T17:16:31.564Z,15.28
2019-02-25T17:19:11.756Z,14.80
2019-02-25T17:21:51.315Z,15.32
2019-02-25T17:24:35.253Z,14.47
2019-02-25T17:27:15.960Z,15.13
2019-02-25T17:29:57.603Z,14.65
2019-02-25T17:32:43.684Z,15.40
2019-02-25T17:35:30.246Z,15.30
2019-02-25T17:38:07.812Z,14.03
2019-02-25T17:40:47.987Z,15.60
2019-02-25T17:43:27.463Z,14.93
2019-02-25T17:46:07.443Z,14.80
2019-02-25T17:48:47.374Z,14.58
2019-02-25T17:51:30.046Z,14.18
2019-02-25T17:54:11.981Z,15.00
2019-02-25T17:56:51.846Z,13.95
2019-02-25T17:59:31.592Z,14.18
2019-02-25T18:02:12.603Z,13.25
2019-02-25T18:04:53.283Z,14.70
2019-02-25T18:07:33.413Z,14.40
2019-02-25T18:10:13.015Z,14.68
2019-02-25T18:12:55.237Z,14.13
2019-02-25T18:15:35.612Z,16.02
2019-02-25T18:18:17.117Z,14.87
2019-02-25T18:20:55.620Z,15.30
2019-02-25T18:23:36.235Z,16.70
2019-02-25T18:26:15.413Z,15.45
2019-02-25T18:28:54.781Z,17.25
2019-02-25T18:31:35.378Z,15.72
2019-02-25T18:34:15.091Z,16.77
2019-02-25T18:36:55.448Z,15.93
2019-02-25T18:39:34.826Z,15.60
2019-02-25T18:42:15.964Z,15.35
2019-02-25T18:44:56.215Z,14.25
2019-02-25T18:47:35.415Z,14.05
2019-02-25T18:50:19.156Z,13.68
2019-02-25T18:52:59.582Z,13.43
2019-02-25T18:55:41.313Z,13.40
2019-02-25T18:58:21.029Z,13.43
2019-02-25T19:01:00.309Z,14.78
2019-02-25T19:03:39.469Z,14.00
2019-02-25T19:06:21.300Z,14.63
2019-02-25T19:09:00.315Z,14.90
2019-02-25T19:11:42.832Z,13.75
2019-02-25T19:14:26.521Z,14.85
2019-02-25T19:17:06.558Z,14.43
2019-02-25T19:19:49.917Z,14.25
2019-02-25T19:22:29.531Z,13.70
2019-02-25T19:25:10.045Z,14.98
2019-02-25T19:27:52.159Z,13.70
2019-02-25T19:30:32.110Z,13.40
2019-02-25T19:33:12.733Z,12.33
2019-02-25T19:35:52.563Z,12.82
2019-02-25T19:38:36.024Z,14.03
2019-02-25T19:41:15.438Z,13.15
2019-02-25T19:43:59.160Z,13.30
2019-02-25T19:46:34.781Z,13.03
2019-02-25T19:49:18.229Z,13.30
2019-02-25T19:51:57.189Z,13.08
2019-02-25T19:54:40.704Z,14.18
2019-02-25T19:57:21.640Z,13.30
2019-02-25T20:00:05.965Z,13.63
2019-02-25T20:02:47.975Z,13.60
2019-02-25T20:05:27.274Z,13.48
2019-02-25T20:08:06.922Z,12.55
2019-02-25T20:10:47.349Z,12.33
2019-02-25T20:13:26.619Z,12.20
2019-02-25T20:16:08.132Z,12.75
2019-02-25T20:18:46.763Z,12.75
2019-02-25T20:21:27.207Z,12.75
2019-02-25T20:24:10.133Z,11.95
2019-02-25T20:26:50.630Z,11.33
2019-02-25T20:29:27.869Z,11.33
2019-02-25T20:32:10.051Z,11.43
2019-02-25T20:34:50.602Z,12.28
2019-02-25T20:37:33.791Z,12.63
2019-02-25T20:40:17.131Z,11.73
2019-02-25T20:43:03.891Z,11.75
2019-02-25T20:45:43.102Z,12.35
2019-02-25T20:48:23.180Z,12.33
2019-02-25T20:51:06.708Z,12.55
2019-02-25T20:53:46.172Z,11.97
2019-02-25T20:56:26.665Z,12.47
2019-02-25T20:59:07.579Z,12.95
2019-02-25T21:01:48.867Z,12.47
2019-02-25T21:04:27.917Z,13.15
2019-02-25T21:07:08.813Z,12.33
2019-02-25T21:09:49.996Z,12.60
2019-02-25T21:12:29.797Z,12.30
2019-02-25T21:15:09.900Z,10.95
2019-02-25T21:17:49.437Z,20.32
2019-02-25T21:20:31.177Z,12.55
2019-02-25T21:23:11.995Z,10.55
2019-02-25T21:25:55.470Z,11.30
2019-02-25T21:28:33.692Z,11.22
2019-02-25T21:31:16.610Z,10.90
2019-02-25T21:33:58.708Z,11.15
2019-02-25T21:36:52.460Z,10.30
2019-02-25T21:39:32.095Z,10.70
2019-02-25T21:42:14.761Z,10.90
2019-02-25T21:44:54.384Z,10.95
2019-02-25T21:47:35.144Z,9.65
2019-02-25T21:50:15.738Z,10.25
2019-02-25T21:52:55.880Z,10.63
2019-02-25T21:55:35.128Z,11.43
2019-02-25T21:58:13.985Z,11.15
2019-02-25T22:00:54.485Z,10.40
2019-02-25T22:03:39.440Z,10.58
2019-02-25T22:06:20.024Z,10.50
2019-02-25T22:08:58.631Z,17.10
2019-02-25T22:11:39.962Z,11.33
2019-02-25T22:14:21.732Z,9.83
2019-02-25T22:17:01.020Z,10.05
2019-02-25T22:19:43.734Z,11.15
2019-02-25T22:22:37.362Z,18.48
2019-02-25T22:25:17.918Z,16.00
2019-02-25T22:30:34.716Z,11.53
2019-02-25T22:33:26.815Z,12.25
2019-02-25T22:35:56.011Z,11.73
2019-02-25T22:38:35.409Z,12.05
2019-02-25T22:41:16.195Z,12.58
2019-02-25T22:43:55.366Z,11.65
2019-02-25T22:46:37.417Z,12.07
2019-02-25T22:49:17.259Z,12.45
2019-02-25T22:51:58.146Z,11.75
2019-02-25T22:54:40.935Z,13.70
2019-02-25T22:57:20.700Z,13.63
2019-02-25T22:59:59.825Z,13.25
2019-02-25T23:05:22.897Z,14.50
2019-02-25T23:08:03.160Z,15.65
2019-02-25T23:10:44.467Z,14.40
2019-02-25T23:13:25.058Z,14.15
2019-02-25T23:16:04.434Z,16.75
2019-02-25T23:18:43.982Z,16.70
2019-02-25T23:21:24.204Z,15.00
2019-02-25T23:24:05.684Z,13.78
2019-02-25T23:26:46.328Z,14.55
2019-02-25T23:29:28.259Z,12.95
2019-02-25T23:32:06.587Z,12.33
2019-02-25T23:34:49.626Z,12.03
2019-02-25T23:37:27.928Z,11.22
2019-02-25T23:40:09.503Z,11.65
2019-02-25T23:42:49.375Z,11.57
2019-02-25T23:45:28.782Z,11.68
2019-02-25T23:48:11.565Z,10.82
2019-02-25T23:50:52.482Z,10.68
2019-02-25T23:53:32.853Z,10.75
2019-02-25T23:56:14.102Z,11.00
2019-02-25T23:58:56.233Z,10.72
